Terminal Aerodrome Forecast
Issued by NWS

Home | Current Version | Previous Version | Text Only | Print | Product List | Glossary On
Versions: 1 2 3 4 5 6 7 8 9 10 11 12 13 14 15 16 17
000
FTUS43 KGRR 302300
TAFMKG
TAF
KMKG 302328Z 3100/3124 23010G18KT P6SM BKN045
     FM310200 24008KT P6SM BKN050
     FM310700 25005KT 5SM BR BKN025
     FM311000 27004KT 2SM BR OVC010
     FM311500 23006KT 5SM BR BKN020
     FM311800 26008KT P6SM BKN035=

USA.gov is the U.S. government's official web portal to all federal, state and local government web resources and services.